Lexington Weather

Lexington, Massachusetts, USA

33°F
12/8/2019 3:33pm 
  • Lexington Conditions: Mostly cloudy
  • Temperature: 33.4°F / 0.8°CColder 0.9°F than last hour.
  • Dew Point: 17.2°FIncreased 2.5°Fsince last hour.
  • Relative Humidity: 51%Increased 7.0% since last hour.
  • Wind: Wind from WSW WSW 1 mph, 10-min avg: 1 mph, gust: 6 mph
  • Barometer: 30.40 in Steady
  • Visibility: 10 miles
  • Snow Today: 0.0 in
  •   

Nearby Reports - Official Weather Stations - Current Conditions

Data from the National Weather Service

KBED - Bedford, MA


Distance from station: WNW 4mi, 6km

Updated Sun Dec 8, 2019 2:51pm EST

Mostly cloudy

Mostly cloudy

Wind from SSW

Wind:

SSW 7 mph, 11 km/h

Temperature: 34°F (1°C)

Wind Chill: 28°F (-2°C)

Dew Point: 7°F (-14°C)

Humidity: 32%

Barometer: 30.42 in (1030.1 hPa)

Clouds: Mostly cloudy

Visibility: 10 miles (16 km)

Cloud details: Mostly cloudy 20000 ft


2019/12/08 19:51 KBED 081951Z 20006KT 10SM BKN200 01/M14 A3042 RMK AO2 SLP319 T00111139

KBOS - Boston, MA


Distance from station: ESE 12mi, 20km

Updated Sun Dec 8, 2019 2:54pm EST

Overcast

Overcast

Wind from SW

Wind:

SW 13 mph, 20 km/h

Temperature: 36°F (2°C)

Wind Chill: 27°F (-3°C)

Dew Point: 16°F (-9°C)

Humidity: 44%

Barometer: 30.44 in (1030.8 hPa)

Clouds: Overcast

Visibility: 10 miles (16 km)

Cloud details: Few Clouds 15000 ft
Partly cloudy 22000 ft
Overcast 25000 ft


2019/12/08 19:54 KBOS 081954Z 22011KT 10SM FEW150 SCT220 OVC250 02/M09 A3044 RMK AO2 SLP308 T00221094

KMQE - East Milton, MA


Distance from station: SSE 17mi, 27km

Updated Sun Dec 8, 2019 2:51pm EST

Wind from SSW

Wind:

SSW 14 mph, 22 km/h,
Gust: 23 mph, 37 km/h

Temperature: 30°F (-1°C)

Wind Chill: 19°F (-7°C)

Dew Point: 19°F (-7°C)

Humidity: 64%

Barometer: 30.40 in (1029.5 hPa)


2019/12/08 19:51 KMQE 081951Z AUTO 20012G20KT M01/M07 A3040 RMK AO1 SLP314 T10061072

KOWD - Norwood, MA


Distance from station: SSE 18mi, 29km

Updated Sun Dec 8, 2019 2:53pm EST

Clear

Clear

Wind from S

Wind:

S 7 mph, 11 km/h

Temperature: 37°F (3°C)

Wind Chill: 32°F (0°C)

Dew Point: 18°F (-8°C)

Humidity: 45%

Barometer: 30.44 in (1030.8 hPa)

Clouds: Clear

Visibility: 10 miles (16 km)


2019/12/08 19:53 KOWD 081953Z 19006KT 10SM CLR 03/M08 A3044 RMK AO2 SLP309 T00281078

KBVY - Beverly, MA


Distance from station: ENE 19mi, 31km

Updated Sun Dec 8, 2019 2:53pm EST

Clear

Clear

Wind from SSW

Wind:

SSW 13 mph, 20 km/h

Temperature: 34°F (1°C)

Wind Chill: 25°F (-4°C)

Dew Point: 10°F (-12°C)

Humidity: 38%

Barometer: 30.43 in (1030.5 hPa)

Clouds: Clear

Visibility: 10 miles (16 km)


2019/12/08 19:53 KBVY 081953Z 20011KT 10SM CLR 01/M12 A3043 RMK AO2 SLP301 T00111122

KLWM - Lawrence, MA


Distance from station: NNE 20mi, 32km

Updated Sun Dec 8, 2019 2:54pm EST

Clear

Clear

Wind from SSW

Wind:

SSW 7 mph, 11 km/h

Temperature: 34°F (1°C)

Wind Chill: 28°F (-2°C)

Dew Point: 9°F (-13°C)

Humidity: 35%

Barometer: 30.43 in (1030.5 hPa)

Clouds: Clear

Visibility: 10 miles (16 km)


2019/12/08 19:54 KLWM 081954Z 20006KT 10SM CLR 01/M13 A3043 RMK AO2 SLP308 T00061133

KFIT - Fitchburg, MA


Distance from station: WNW 27mi, 44km

Updated Sun Dec 8, 2019 2:52pm EST

Clear

Clear

Wind from SSE

Wind:

SSE 8 mph, 13 km/h

Temperature: 30°F (-1°C)

Wind Chill: 22°F (-6°C)

Dew Point: 9°F (-13°C)

Humidity: 40%

Barometer: 30.41 in (1029.8 hPa)

Clouds: Clear

Visibility: 10 miles (16 km)


2019/12/08 19:52 KFIT 081952Z AUTO 16007KT 10SM CLR M01/M13 A3041 RMK AO2 SLP305 T10061133

KASH - Nashua/Boire Fld, NH


Distance from station: NNW 28mi, 44km

Updated Sun Dec 8, 2019 2:56pm EST

Clear

Clear

Wind from varies

Wind:

varies 3 mph, 6 km/h

Temperature: 32°F (0°C)

Dew Point: 9°F (-13°C)

Humidity: 37%

Barometer: 30.41 in (1029.8 hPa)

Clouds: Clear

Visibility: 10 miles (16 km)


2019/12/08 19:56 KASH 081956Z VRB03KT 10SM CLR 00/M13 A3041 RMK AO2 SLP307 T00001133

KORH - Worcester, MA


Distance from station: WSW 34mi, 55km

Updated Sun Dec 8, 2019 2:54pm EST

Clear

Clear

Wind from SSW

Wind:

SSW 12 mph, 19 km/h

Temperature: 28°F (-2°C)

Wind Chill: 18°F (-8°C)

Dew Point: 7°F (-14°C)

Humidity: 40%

Barometer: 30.38 in (1028.8 hPa)

Clouds: Clear

Visibility: 10 miles (16 km)


2019/12/08 19:54 KORH 081954Z 21010KT 10SM CLR M02/M14 A3038 RMK AO2 SLP304 T10221139

KMHT - Manchester, NH


Distance from station: NNW 35mi, 57km

Updated Sun Dec 8, 2019 2:53pm EST

Mostly cloudy

Mostly cloudy

Wind from S

Wind:

S 10 mph, 17 km/h

Temperature: 34°F (1°C)

Wind Chill: 26°F (-3°C)

Dew Point: 7°F (-14°C)

Humidity: 32%

Barometer: 30.39 in (1029.1 hPa)

Clouds: Mostly cloudy

Visibility: 10 miles (16 km)

Cloud details: Mostly cloudy 25000 ft


2019/12/08 19:53 KMHT 081953Z 18009KT 10SM BKN250 01/M14 A3039 RMK AO2 SLP311 T00061139

KGHG - Marshfield, MA


Distance from station: SE 38mi, 60km

Updated Sun Dec 8, 2019 3:15pm EST

Clear

Clear

Wind from varies

Wind:

varies 5 mph, 7 km/h,
Gust: 12 mph, 19 km/h

Temperature: 36°F (2°C)

Wind Chill: 32°F (0°C)

Dew Point: 23°F (-5°C)

Humidity: 60%

Barometer: 30.45 in (1031.2 hPa)

Clouds: Clear

Visibility: 10 miles (16 km)


2019/12/08 20:15 KGHG 082015Z AUTO VRB04G10KT 10SM CLR 02/M05 A3045 RMK AO2

KSFZ - Pawtucket, RI


Distance from station: SSW 39mi, 62km

Updated Sun Dec 8, 2019 2:56pm EST

Clear

Clear

Wind from varies

Wind:

varies 5 mph, 7 km/h

Temperature: 34°F (1°C)

Wind Chill: 29°F (-2°C)

Dew Point: 18°F (-8°C)

Humidity: 51%

Barometer: 30.43 in (1030.5 hPa)

Clouds: Clear

Visibility: 10 miles (16 km)


2019/12/08 19:56 KSFZ 081956Z AUTO VRB04KT 10SM CLR 01/M08 A3043 RMK AO2 SLP256 T00061078 FZRANO

KTAN - Taunton, MA


Distance from station: SSE 40mi, 65km

Updated Sun Dec 8, 2019 2:52pm EST

Clear

Clear

Wind from SSW

Wind:

SSW 9 mph, 15 km/h

Temperature: 36°F (2°C)

Wind Chill: 29°F (-2°C)

Dew Point: 23°F (-5°C)

Humidity: 60%

Barometer: 30.46 in (1031.5 hPa)

Clouds: Clear

Visibility: 10 miles (16 km)


2019/12/08 19:52 KTAN 081952Z AUTO 21008KT 10SM CLR 02/M05 A3046 RMK AO2 SLP314 T00221050

KPYM - Plymouth, MA


Distance from station: SE 44mi, 72km

Updated Sun Dec 8, 2019 2:52pm EST

Clear

Clear

Wind from SSW

Wind:

SSW 8 mph, 13 km/h

Temperature: 36°F (2°C)

Wind Chill: 30°F (-1°C)

Dew Point: 25°F (-4°C)

Humidity: 65%

Barometer: 30.45 in (1031.2 hPa)

Clouds: Clear

Visibility: 10 miles (16 km)


2019/12/08 19:52 KPYM 081952Z AUTO 20007KT 10SM CLR 02/M04 A3045 RMK AO2 SLP314 T00171044

KAFN - Jaffrey, NH


Distance from station: WNW 46mi, 74km

Updated Sun Dec 8, 2019 2:52pm EST

Clear

Clear

Wind from SSW

Wind:

SSW 13 mph, 20 km/h,
Gust: 22 mph, 35 km/h

Temperature: 28°F (-2°C)

Wind Chill: 17°F (-8°C)

Barometer: 30.36 in (1028.1 hPa)

Clouds: Clear

Visibility: 10 miles (16 km)


2019/12/08 19:52 KAFN 081952Z AUTO 20011G19KT 10SM CLR M02/ A3036 RMK AO2 SLP308 T1022 $

KPSM - Portsmouth/Pease, NH


Distance from station: NNE 48mi, 78km

Updated Sun Dec 8, 2019 2:56pm EST

Mostly cloudy

Mostly cloudy

Wind from SSW

Wind:

SSW 7 mph, 11 km/h

Temperature: 30°F (-1°C)

Wind Chill: 23°F (-5°C)

Dew Point: 3°F (-16°C)

Humidity: 31%

Barometer: 30.41 in (1029.8 hPa)

Clouds: Mostly cloudy

Visibility: 10 miles (16 km)

Cloud details: Mostly cloudy 25000 ft


2019/12/08 19:56 KPSM 081956Z 20006KT 10SM BKN250 M01/M16 A3041 RMK AO2A SLP302 T10061157

KPVD - Providence/Green, RI


Distance from station: S 51mi, 82km

Updated Sun Dec 8, 2019 2:51pm EST

Mostly cloudy

Mostly cloudy

Wind from SSW

Wind:

SSW 10 mph, 17 km/h

Temperature: 36°F (2°C)

Wind Chill: 29°F (-2°C)

Dew Point: 23°F (-5°C)

Humidity: 60%

Barometer: 30.46 in (1031.5 hPa)

Clouds: Mostly cloudy

Visibility: 10 miles (16 km)

Cloud details: Few Clouds 3500 ft
Few Clouds 12000 ft
Partly cloudy 15000 ft
Partly cloudy 20000 ft
Mostly cloudy 30000 ft


2019/12/08 19:51 KPVD 081951Z 21009KT 10SM FEW035 FEW120 SCT150 SCT200 BKN300 02/M05 A3046 RMK AO2 SLP316 T00221050

KCON - Concord, NH


Distance from station: NNW 54mi, 87km

Updated Sun Dec 8, 2019 2:51pm EST

Clear

Clear

Wind from SSE

Wind:

SSE 9 mph, 15 km/h

Temperature: 28°F (-2°C)

Wind Chill: 19°F (-7°C)

Dew Point: 9°F (-13°C)

Humidity: 43%

Barometer: 30.38 in (1028.8 hPa)

Clouds: Clear

Visibility: 10 miles (16 km)


2019/12/08 19:51 KCON 081951Z AUTO 15008KT 10SM CLR M02/M13 A3038 RMK AO2 SLP297 T10171133

KEWB - New Bedford, MA


Distance from station: SSE 54mi, 87km

Updated Sun Dec 8, 2019 2:53pm EST

Few Clouds

Few Clouds

Wind from SSW

Wind:

SSW 9 mph, 15 km/h,
Gust: 20 mph, 31 km/h

Temperature: 36°F (2°C)

Wind Chill: 29°F (-2°C)

Dew Point: 25°F (-4°C)

Humidity: 65%

Barometer: 30.46 in (1031.5 hPa)

Clouds: Few Clouds

Visibility: 10 miles (16 km)

Cloud details: Few Clouds 3000 ft


2019/12/08 19:53 KEWB 081953Z 20008G17KT 10SM FEW030 02/M04 A3046 RMK AO2 SLP315 T00221039 $

KMWN - Mount Washington, NH


Distance from station: N 126mi, 203km

Updated Sun Dec 8, 2019 2:52pm EST

Mostly cloudy

Mostly cloudy

Wind from WSW

Wind:

WSW 54 mph, 87 km/h,
Gust: 62 mph, 100 km/h

Temperature: 16°F (-9°C)

Wind Chill: -9°F (-23°C)

Dew Point: -2°F (-19°C)

Humidity: 45%

Clouds: Mostly cloudy

Visibility: 100 miles (160 km)

Cloud details: Mostly cloudy 6000 ft
Mostly cloudy 14000 ft


2019/12/08 19:52 KMWN 081952Z 24047G54KT 100SM BKN060 BKN140 M09/M19 RMK BLSN BLO STA ALQDS